createdAt,value
2022-07-28T00:00:44.467Z,99.90
2022-07-28T00:03:11.453Z,99.90
2022-07-28T00:05:38.720Z,99.90
2022-07-28T00:08:06.143Z,99.90
2022-07-28T00:10:33.008Z,99.90
2022-07-28T00:13:00.475Z,99.90
2022-07-28T00:15:28.053Z,99.90
2022-07-28T00:17:54.997Z,99.90
2022-07-28T00:20:22.111Z,99.90
2022-07-28T00:22:48.930Z,99.90
2022-07-28T00:25:15.841Z,99.90
2022-07-28T00:27:42.638Z,99.90
2022-07-28T00:30:10.108Z,99.90
2022-07-28T00:32:38.578Z,99.90
2022-07-28T00:35:08.118Z,99.90
2022-07-28T00:37:35.817Z,99.90
2022-07-28T00:40:08.268Z,99.90
2022-07-28T00:42:35.225Z,99.90
2022-07-28T00:45:02.164Z,99.90
2022-07-28T00:47:33.701Z,99.90
2022-07-28T00:50:02.469Z,99.90
2022-07-28T00:52:29.836Z,99.90
2022-07-28T00:54:57.956Z,99.90
2022-07-28T00:57:24.939Z,99.90
2022-07-28T00:59:51.827Z,99.90
2022-07-28T01:02:19.101Z,99.90
2022-07-28T01:04:46.551Z,99.90
2022-07-28T01:07:32.763Z,99.90
2022-07-28T01:10:08.926Z,99.90
2022-07-28T01:12:38.566Z,99.90
2022-07-28T01:15:40.788Z,99.90
2022-07-28T01:18:17.048Z,99.90
2022-07-28T01:21:05.104Z,99.90
2022-07-28T01:23:31.892Z,99.90
2022-07-28T01:26:14.178Z,99.90
2022-07-28T01:29:01.283Z,99.90
2022-07-28T01:31:36.739Z,99.90
2022-07-28T01:34:15.564Z,99.90
2022-07-28T01:36:46.516Z,99.90
2022-07-28T01:39:15.057Z,99.90
2022-07-28T01:41:44.475Z,99.90
2022-07-28T01:44:18.679Z,99.90
2022-07-28T01:46:46.414Z,99.90
2022-07-28T01:49:14.272Z,99.90
2022-07-28T01:51:42.824Z,99.90
2022-07-28T01:54:11.674Z,99.90
2022-07-28T01:56:40.819Z,99.90
2022-07-28T01:59:11.800Z,99.90
2022-07-28T02:01:43.598Z,99.90
2022-07-28T02:04:12.384Z,99.90
2022-07-28T02:06:41.723Z,99.90
2022-07-28T02:09:09.903Z,99.90
2022-07-28T02:11:40.175Z,99.90
2022-07-28T02:14:27.435Z,99.90
2022-07-28T02:17:16.388Z,99.90
2022-07-28T02:19:46.055Z,99.90
2022-07-28T02:22:14.132Z,99.90
2022-07-28T02:24:43.323Z,99.90
2022-07-28T02:27:30.455Z,99.90
2022-07-28T02:30:10.199Z,99.90
2022-07-28T02:32:41.551Z,99.90
2022-07-28T02:35:31.299Z,99.90
2022-07-28T02:38:07.494Z,99.90
2022-07-28T02:40:36.937Z,99.90
2022-07-28T02:43:08.886Z,99.90
2022-07-28T02:45:40.240Z,99.90
2022-07-28T02:48:11.783Z,99.90
2022-07-28T02:50:41.078Z,99.90
2022-07-28T02:53:15.247Z,99.90
2022-07-28T02:55:46.136Z,99.90
2022-07-28T02:58:15.663Z,99.90
2022-07-28T03:00:44.239Z,99.90
2022-07-28T03:03:12.191Z,99.90
2022-07-28T03:05:41.183Z,99.90
2022-07-28T03:08:09.301Z,99.90
2022-07-28T03:10:36.096Z,99.90
2022-07-28T03:13:06.799Z,99.90
2022-07-28T03:15:35.021Z,99.90
2022-07-28T03:18:04.136Z,99.90
2022-07-28T03:20:31.432Z,99.90
2022-07-28T03:22:59.692Z,99.90
2022-07-28T03:25:34.996Z,99.90
2022-07-28T03:28:04.853Z,99.90
2022-07-28T03:30:43.035Z,99.90
2022-07-28T03:33:10.173Z,99.90
2022-07-28T03:35:44.747Z,99.90
2022-07-28T03:38:17.911Z,99.90
2022-07-28T03:40:46.563Z,99.90
2022-07-28T03:43:16.863Z,99.90
2022-07-28T03:45:46.871Z,99.90
2022-07-28T03:48:14.948Z,99.90
2022-07-28T03:50:41.929Z,99.90
2022-07-28T03:53:22.187Z,99.90
2022-07-28T03:55:53.494Z,99.90
2022-07-28T03:58:21.871Z,99.90
2022-07-28T04:00:54.027Z,99.90
2022-07-28T04:03:36.314Z,99.90
2022-07-28T04:06:08.408Z,99.90
2022-07-28T04:08:35.250Z,99.90
2022-07-28T04:11:02.511Z,99.90
2022-07-28T04:13:31.903Z,99.90
2022-07-28T04:15:59.625Z,99.90
2022-07-28T04:18:26.481Z,99.90
2022-07-28T04:20:53.340Z,99.90
2022-07-28T04:23:20.974Z,99.90
2022-07-28T04:25:48.150Z,99.90
2022-07-28T04:28:15.733Z,99.90
2022-07-28T04:30:43.927Z,99.90
2022-07-28T04:33:12.106Z,99.90
2022-07-28T04:35:39.011Z,99.90
2022-07-28T04:38:05.982Z,99.90
2022-07-28T04:40:34.384Z,99.90
2022-07-28T04:43:01.489Z,99.90
2022-07-28T04:45:29.132Z,99.90
2022-07-28T04:47:56.216Z,99.90
2022-07-28T04:50:23.131Z,99.90
2022-07-28T04:52:58.965Z,99.90
2022-07-28T04:55:26.400Z,99.90
2022-07-28T04:57:53.186Z,99.90
2022-07-28T05:00:22.994Z,99.90
2022-07-28T05:02:50.492Z,99.90
2022-07-28T05:05:17.901Z,99.90
2022-07-28T05:07:44.858Z,99.90
2022-07-28T05:10:12.779Z,99.90
2022-07-28T05:12:39.911Z,99.90
2022-07-28T05:15:08.323Z,99.90
2022-07-28T05:17:37.126Z,99.90
2022-07-28T05:20:05.166Z,99.90
2022-07-28T05:22:46.141Z,99.90
2022-07-28T05:25:21.526Z,99.90
2022-07-28T05:27:49.603Z,99.90
2022-07-28T05:30:18.216Z,99.90
2022-07-28T05:32:45.806Z,99.90
2022-07-28T05:35:13.169Z,99.90
2022-07-28T05:37:40.271Z,99.90
2022-07-28T05:40:15.324Z,99.90
2022-07-28T05:42:43.390Z,99.90
2022-07-28T05:45:16.293Z,99.90
2022-07-28T05:47:52.637Z,99.90
2022-07-28T05:50:22.406Z,99.90
2022-07-28T05:52:50.125Z,99.90
2022-07-28T05:55:17.860Z,99.90
2022-07-28T05:57:44.896Z,99.90
2022-07-28T06:00:18.111Z,99.90
2022-07-28T06:02:46.058Z,99.90
2022-07-28T06:05:13.767Z,99.90
2022-07-28T06:07:43.788Z,99.90
2022-07-28T06:10:16.645Z,99.90
2022-07-28T06:12:49.437Z,99.90
2022-07-28T06:15:19.234Z,99.90
2022-07-28T06:17:46.300Z,99.90
2022-07-28T06:20:14.377Z,99.90
2022-07-28T06:22:51.597Z,99.90
2022-07-28T06:25:26.778Z,99.90
2022-07-28T06:27:59.131Z,99.90
2022-07-28T06:30:27.211Z,99.90
2022-07-28T06:32:54.359Z,99.90
2022-07-28T06:35:21.999Z,99.90
2022-07-28T06:37:50.497Z,99.90
2022-07-28T06:40:19.042Z,99.90
2022-07-28T06:42:46.446Z,99.90
2022-07-28T06:45:19.796Z,99.90
2022-07-28T06:47:49.440Z,99.90
2022-07-28T06:50:25.629Z,99.90
2022-07-28T06:52:58.897Z,99.90
2022-07-28T06:55:35.436Z,99.90
2022-07-28T06:58:04.174Z,99.90
2022-07-28T07:00:31.596Z,99.90
2022-07-28T07:03:00.333Z,99.90
2022-07-28T07:05:29.921Z,99.90
2022-07-28T07:07:56.851Z,99.90
2022-07-28T07:10:23.871Z,99.90
2022-07-28T07:12:50.696Z,99.90
2022-07-28T07:15:17.539Z,99.90
2022-07-28T07:17:44.413Z,99.90
2022-07-28T07:20:13.448Z,99.90
2022-07-28T07:22:45.300Z,99.90
2022-07-28T07:25:17.449Z,99.90
2022-07-28T07:27:45.251Z,99.90
2022-07-28T07:30:14.293Z,99.90
2022-07-28T07:32:41.690Z,99.90
2022-07-28T07:35:09.152Z,99.90
2022-07-28T07:37:36.051Z,99.90
2022-07-28T07:40:04.908Z,99.90
2022-07-28T07:42:32.122Z,99.90
2022-07-28T07:44:59.652Z,99.90
2022-07-28T07:47:26.497Z,99.90
2022-07-28T07:49:53.328Z,99.90
2022-07-28T07:52:20.247Z,99.90
2022-07-28T07:54:47.274Z,99.90
2022-07-28T07:57:14.216Z,99.90
2022-07-28T07:59:41.676Z,99.90
2022-07-28T08:02:09.019Z,99.90
2022-07-28T08:04:37.568Z,99.90
2022-07-28T08:07:06.468Z,99.90
2022-07-28T08:09:34.040Z,99.90
2022-07-28T08:12:00.949Z,99.90
2022-07-28T08:14:27.934Z,99.90
2022-07-28T08:16:56.761Z,99.90
2022-07-28T08:19:23.956Z,99.90
2022-07-28T08:21:52.240Z,99.90
2022-07-28T08:24:32.436Z,99.90
2022-07-28T08:27:00.210Z,99.90
2022-07-28T08:29:27.227Z,99.90
2022-07-28T08:31:54.127Z,99.90
2022-07-28T08:34:31.848Z,99.90
2022-07-28T08:37:01.443Z,99.90
2022-07-28T08:39:28.582Z,99.90
2022-07-28T08:41:59.656Z,99.90
2022-07-28T08:44:56.264Z,99.90
2022-07-28T08:47:35.636Z,99.90
2022-07-28T08:50:07.869Z,99.90
2022-07-28T08:52:38.124Z,99.90
2022-07-28T08:55:07.522Z,99.90
2022-07-28T08:57:36.635Z,99.90
2022-07-28T09:00:05.191Z,99.90
2022-07-28T09:02:33.535Z,99.90
2022-07-28T09:05:01.406Z,99.90
2022-07-28T09:07:29.176Z,99.90
2022-07-28T09:10:02.276Z,99.90
2022-07-28T09:12:29.537Z,99.90
2022-07-28T09:14:56.351Z,99.20
2022-07-28T09:17:23.263Z,99.70
2022-07-28T09:19:50.160Z,98.90
2022-07-28T09:22:17.129Z,98.50
2022-07-28T09:24:46.643Z,98.00
2022-07-28T09:27:14.972Z,98.30
2022-07-28T09:29:46.793Z,97.30
2022-07-28T09:32:15.786Z,97.20
2022-07-28T09:34:47.534Z,96.00
2022-07-28T09:37:27.153Z,96.50
2022-07-28T09:39:59.562Z,95.70
2022-07-28T09:42:44.432Z,96.10
2022-07-28T09:45:26.753Z,96.20
2022-07-28T09:48:12.068Z,95.50
2022-07-28T09:50:42.847Z,94.20
2022-07-28T09:53:27.242Z,93.70
2022-07-28T09:55:59.999Z,93.50
2022-07-28T09:58:30.923Z,94.20
2022-07-28T10:01:21.052Z,94.40
2022-07-28T10:03:57.604Z,94.30
2022-07-28T10:06:28.242Z,93.70
2022-07-28T10:09:01.044Z,92.50
2022-07-28T10:11:30.240Z,92.20
2022-07-28T10:14:05.554Z,91.40
2022-07-28T10:16:34.932Z,91.50
2022-07-28T10:19:04.902Z,92.20
2022-07-28T10:21:35.858Z,92.80
2022-07-28T10:24:06.051Z,92.70
2022-07-28T10:26:38.507Z,92.40
2022-07-28T10:29:09.784Z,91.40
2022-07-28T10:31:54.575Z,90.90
2022-07-28T10:34:25.374Z,90.90
2022-07-28T10:36:55.742Z,91.40
2022-07-28T10:39:25.542Z,91.60
2022-07-28T10:41:53.065Z,91.20
2022-07-28T10:44:20.523Z,91.00
2022-07-28T10:46:47.530Z,90.60
2022-07-28T10:49:15.076Z,91.00
2022-07-28T10:52:06.270Z,90.60
2022-07-28T10:54:43.171Z,91.40
2022-07-28T10:57:12.448Z,91.00
2022-07-28T11:00:12.240Z,91.50
2022-07-28T11:02:50.708Z,91.00
2022-07-28T11:05:31.126Z,89.10
2022-07-28T11:08:01.217Z,86.00
2022-07-28T11:10:29.649Z,83.40
2022-07-28T11:12:58.711Z,83.20
2022-07-28T11:15:27.341Z,82.80
2022-07-28T11:18:08.817Z,82.90
2022-07-28T11:20:51.633Z,82.80
2022-07-28T11:23:38.516Z,84.40
2022-07-28T11:26:21.259Z,84.80
2022-07-28T11:29:00.263Z,86.50
2022-07-28T11:31:48.454Z,86.30
2022-07-28T11:34:16.747Z,84.80
2022-07-28T11:37:05.051Z,83.70
2022-07-28T11:39:43.346Z,85.40
2022-07-28T11:42:29.435Z,87.20
2022-07-28T11:45:18.226Z,87.70
2022-07-28T11:47:45.591Z,87.70
2022-07-28T11:50:17.184Z,89.20
2022-07-28T11:52:55.009Z,87.90
2022-07-28T11:55:22.224Z,90.00
2022-07-28T11:58:24.622Z,90.30
2022-07-28T12:01:18.040Z,89.30
2022-07-28T12:03:50.420Z,89.80
2022-07-28T12:06:26.296Z,90.40
2022-07-28T12:08:56.986Z,90.40
2022-07-28T12:11:25.165Z,87.80
2022-07-28T12:14:06.803Z,84.90
2022-07-28T12:16:39.633Z,83.80
2022-07-28T12:19:08.209Z,85.70
2022-07-28T12:21:47.557Z,85.20
2022-07-28T12:24:30.100Z,84.50
2022-07-28T12:26:58.385Z,83.80
2022-07-28T12:29:32.259Z,83.70
2022-07-28T12:32:06.166Z,83.20
2022-07-28T12:34:39.814Z,81.60
2022-07-28T12:37:10.931Z,82.30
2022-07-28T12:39:42.657Z,81.20
2022-07-28T12:42:11.606Z,81.70
2022-07-28T12:44:40.755Z,83.00
2022-07-28T12:47:10.796Z,84.70
2022-07-28T12:49:39.268Z,83.70
2022-07-28T12:52:21.437Z,82.90
2022-07-28T12:54:55.115Z,79.50
2022-07-28T12:57:48.670Z,77.20
2022-07-28T13:00:22.724Z,76.50
2022-07-28T13:02:52.254Z,77.40
2022-07-28T13:05:53.864Z,76.10
2022-07-28T13:08:21.875Z,78.00
2022-07-28T13:10:51.603Z,79.10
2022-07-28T13:13:20.966Z,78.70
2022-07-28T13:16:20.734Z,76.70
2022-07-28T13:18:51.523Z,75.30
2022-07-28T13:21:56.506Z,70.40
2022-07-28T13:24:24.462Z,69.40
2022-07-28T13:26:51.480Z,69.40
2022-07-28T13:29:18.368Z,69.50
2022-07-28T13:31:45.265Z,71.30
2022-07-28T13:34:12.674Z,73.10
2022-07-28T13:36:39.873Z,78.20
2022-07-28T13:39:10.372Z,78.00
2022-07-28T13:41:42.053Z,76.50
2022-07-28T13:44:24.882Z,74.20
2022-07-28T13:46:52.024Z,74.90
2022-07-28T13:49:21.237Z,75.90
2022-07-28T13:51:49.063Z,78.90
2022-07-28T13:54:19.297Z,78.20
2022-07-28T13:57:05.501Z,77.00
2022-07-28T13:59:44.112Z,74.90
2022-07-28T14:02:15.037Z,73.20
2022-07-28T14:04:46.032Z,75.30
2022-07-28T14:07:21.229Z,74.80
2022-07-28T14:09:50.593Z,75.50
2022-07-28T14:12:18.252Z,76.80
2022-07-28T14:14:48.335Z,76.50
2022-07-28T14:17:42.713Z,77.00
2022-07-28T14:20:10.524Z,77.60
2022-07-28T14:22:37.335Z,76.20
2022-07-28T14:25:04.541Z,78.30
2022-07-28T14:27:31.502Z,78.30
2022-07-28T14:29:58.501Z,75.90
2022-07-28T14:32:25.309Z,74.10
2022-07-28T14:34:53.371Z,73.60
2022-07-28T14:37:21.622Z,73.10
2022-07-28T14:39:48.441Z,74.00
2022-07-28T14:42:15.539Z,72.70
2022-07-28T14:44:42.343Z,71.90
2022-07-28T14:47:09.432Z,73.40
2022-07-28T14:49:36.420Z,75.70
2022-07-28T14:52:03.900Z,78.80
2022-07-28T14:54:32.953Z,80.00
2022-07-28T14:56:59.844Z,80.30
2022-07-28T14:59:26.684Z,80.60
2022-07-28T15:01:53.697Z,82.20
2022-07-28T15:04:21.020Z,82.80
2022-07-28T15:06:48.008Z,83.10
2022-07-28T15:09:15.145Z,81.80
2022-07-28T15:11:42.263Z,83.50
2022-07-28T15:14:09.099Z,83.40
2022-07-28T15:16:36.159Z,83.30
2022-07-28T15:19:03.257Z,82.40
2022-07-28T15:21:35.871Z,84.10
2022-07-28T15:24:03.873Z,82.80
2022-07-28T15:26:30.872Z,82.80
2022-07-28T15:28:57.789Z,82.50
2022-07-28T15:31:25.514Z,82.80
2022-07-28T15:33:57.845Z,82.90
2022-07-28T15:36:25.706Z,81.70
2022-07-28T15:38:53.669Z,81.00
2022-07-28T15:41:20.742Z,81.10
2022-07-28T15:43:47.568Z,78.80
2022-07-28T15:46:14.793Z,75.80
2022-07-28T15:48:43.732Z,76.10
2022-07-28T15:51:11.269Z,73.40
2022-07-28T15:53:38.281Z,72.00
2022-07-28T15:56:05.336Z,71.60
2022-07-28T15:58:32.266Z,74.60
2022-07-28T16:01:01.059Z,74.80
2022-07-28T16:03:29.597Z,72.10
2022-07-28T16:05:56.925Z,70.00
2022-07-28T16:08:23.879Z,68.00
2022-07-28T16:10:52.680Z,67.50
2022-07-28T16:13:31.323Z,67.60
2022-07-28T16:16:08.863Z,66.80
2022-07-28T16:18:37.080Z,65.80
2022-07-28T16:21:04.670Z,65.90
2022-07-28T16:23:31.809Z,69.40
2022-07-28T16:25:59.051Z,70.50
2022-07-28T16:28:26.562Z,71.70
2022-07-28T16:30:54.168Z,71.60
2022-07-28T16:33:20.996Z,73.50
2022-07-28T16:35:48.297Z,72.70
2022-07-28T16:38:15.189Z,72.60
2022-07-28T16:40:42.267Z,72.90
2022-07-28T16:43:09.933Z,73.20
2022-07-28T16:45:37.075Z,74.50
2022-07-28T16:48:04.401Z,76.80
2022-07-28T16:50:32.874Z,76.90
2022-07-28T16:53:00.738Z,76.70
2022-07-28T16:55:27.695Z,78.20
2022-07-28T16:57:54.600Z,79.00
2022-07-28T17:00:21.768Z,80.00
2022-07-28T17:02:48.600Z,81.60
2022-07-28T17:05:15.508Z,81.30
2022-07-28T17:07:45.677Z,82.50
2022-07-28T17:10:16.070Z,82.20
2022-07-28T17:12:50.271Z,83.00
2022-07-28T17:15:22.154Z,82.30
2022-07-28T17:17:53.419Z,79.90
2022-07-28T17:20:21.145Z,78.80
2022-07-28T17:22:48.517Z,77.10
2022-07-28T17:25:43.919Z,77.00
2022-07-28T17:28:03.307Z,79.20
2022-07-28T17:30:32.788Z,80.60
2022-07-28T17:33:06.103Z,81.30
2022-07-28T17:35:35.966Z,82.70
2022-07-28T17:38:05.048Z,82.30
2022-07-28T17:40:32.065Z,83.90
2022-07-28T17:42:58.894Z,85.20
2022-07-28T17:45:25.850Z,85.90
2022-07-28T17:47:52.938Z,86.20
2022-07-28T17:50:19.920Z,86.80
2022-07-28T17:52:46.929Z,87.30
2022-07-28T17:55:40.715Z,87.70
2022-07-28T17:58:28.652Z,87.60
2022-07-28T18:01:10.719Z,87.20
2022-07-28T18:03:56.482Z,87.20
2022-07-28T18:06:33.431Z,87.70
2022-07-28T18:09:06.624Z,87.60
2022-07-28T18:11:57.853Z,88.20
2022-07-28T18:14:27.677Z,88.10
2022-07-28T18:16:55.168Z,88.90
2022-07-28T18:19:22.134Z,89.40
2022-07-28T18:21:49.204Z,90.40
2022-07-28T18:24:16.513Z,89.50
2022-07-28T18:26:43.921Z,89.80
2022-07-28T18:29:10.805Z,89.80
2022-07-28T18:31:43.890Z,89.80
2022-07-28T18:34:13.662Z,90.10
2022-07-28T18:36:40.758Z,90.20
2022-07-28T18:39:08.521Z,90.20
2022-07-28T18:41:47.431Z,90.80
2022-07-28T18:44:19.460Z,90.60
2022-07-28T18:46:47.037Z,91.00
2022-07-28T18:49:14.804Z,90.70
2022-07-28T18:51:44.254Z,90.70
2022-07-28T18:54:14.217Z,90.90
2022-07-28T18:56:41.439Z,91.40
2022-07-28T18:59:08.326Z,91.10
2022-07-28T19:01:35.334Z,91.90
2022-07-28T19:04:02.631Z,91.60
2022-07-28T19:06:29.536Z,91.40
2022-07-28T19:08:56.684Z,91.70
2022-07-28T19:11:23.477Z,91.70
2022-07-28T19:13:50.389Z,91.70
2022-07-28T19:16:18.955Z,91.80
2022-07-28T19:18:45.865Z,91.90
2022-07-28T19:21:13.539Z,92.10
2022-07-28T19:23:40.466Z,92.10
2022-07-28T19:26:07.516Z,92.20
2022-07-28T19:28:34.415Z,92.00
2022-07-28T19:31:10.261Z,92.10
2022-07-28T19:33:42.855Z,92.50
2022-07-28T19:36:14.616Z,92.60
2022-07-28T19:38:42.294Z,92.70
2022-07-28T19:41:09.767Z,92.70
2022-07-28T19:43:36.678Z,92.70
2022-07-28T19:46:03.586Z,92.70
2022-07-28T19:48:30.492Z,92.70
2022-07-28T19:50:57.488Z,92.70
2022-07-28T19:53:25.337Z,92.60
2022-07-28T19:55:59.310Z,92.60
2022-07-28T19:58:26.234Z,92.70
2022-07-28T20:00:53.724Z,92.60
2022-07-28T20:04:00.967Z,92.60
2022-07-28T20:06:11.559Z,92.70
2022-07-28T20:08:39.009Z,92.70
2022-07-28T20:11:06.520Z,92.70
2022-07-28T20:13:33.531Z,92.70
2022-07-28T20:16:00.429Z,92.70
2022-07-28T20:18:27.254Z,92.60
2022-07-28T20:20:54.056Z,92.80
2022-07-28T20:23:21.059Z,92.60
2022-07-28T20:25:47.960Z,92.50
2022-07-28T20:28:14.806Z,92.40
2022-07-28T20:30:41.780Z,92.50
2022-07-28T20:33:08.711Z,92.40
2022-07-28T20:35:35.595Z,92.40
2022-07-28T20:38:03.395Z,92.50
2022-07-28T20:40:30.290Z,92.70
2022-07-28T20:42:57.272Z,92.70
2022-07-28T20:45:24.239Z,92.80
2022-07-28T20:47:51.412Z,92.80
2022-07-28T20:50:20.211Z,92.80
2022-07-28T20:52:48.154Z,92.80
2022-07-28T20:55:15.020Z,93.10
2022-07-28T20:57:42.137Z,93.00
2022-07-28T21:00:20.491Z,93.10
2022-07-28T21:02:47.639Z,93.40
2022-07-28T21:05:26.615Z,93.20
2022-07-28T21:08:05.802Z,93.30
2022-07-28T21:10:36.778Z,93.50
2022-07-28T21:13:03.829Z,93.50
2022-07-28T21:15:31.939Z,93.50
2022-07-28T21:17:59.060Z,93.70
2022-07-28T21:20:26.532Z,93.80
2022-07-28T21:22:53.780Z,93.80
2022-07-28T21:25:20.666Z,93.80
2022-07-28T21:28:06.289Z,93.90
2022-07-28T21:30:33.360Z,93.90
2022-07-28T21:33:00.306Z,94.20
2022-07-28T21:35:27.264Z,93.80
2022-07-28T21:37:54.107Z,93.90
2022-07-28T21:40:21.052Z,94.00
2022-07-28T21:42:48.005Z,93.80
2022-07-28T21:45:15.032Z,93.90
2022-07-28T21:47:42.062Z,94.00
2022-07-28T21:50:09.373Z,93.90
2022-07-28T21:52:37.660Z,93.80
2022-07-28T21:55:06.873Z,94.00
2022-07-28T21:57:34.685Z,94.70
2022-07-28T22:00:02.861Z,95.30
2022-07-28T22:02:32.734Z,96.20
2022-07-28T22:04:59.825Z,97.10
2022-07-28T22:07:26.797Z,98.20
2022-07-28T22:09:53.688Z,99.30
2022-07-28T22:12:21.352Z,99.60
2022-07-28T22:14:48.169Z,99.90
2022-07-28T22:17:14.958Z,99.90
2022-07-28T22:19:41.815Z,99.90
2022-07-28T22:22:08.663Z,99.90
2022-07-28T22:24:35.512Z,99.90
2022-07-28T22:27:02.543Z,99.90
2022-07-28T22:29:31.100Z,99.90
2022-07-28T22:31:59.571Z,99.90
2022-07-28T22:34:27.868Z,99.90
2022-07-28T22:36:54.725Z,99.90
2022-07-28T22:39:21.951Z,99.90
2022-07-28T22:41:49.093Z,99.90
2022-07-28T22:44:16.325Z,99.90
2022-07-28T22:46:43.669Z,99.90
2022-07-28T22:49:10.595Z,99.90
2022-07-28T22:51:38.005Z,99.90
2022-07-28T22:54:04.984Z,99.90
2022-07-28T22:56:34.787Z,99.90
2022-07-28T22:59:04.959Z,99.90
2022-07-28T23:01:32.039Z,99.90
2022-07-28T23:03:59.033Z,99.90
2022-07-28T23:06:26.572Z,99.90
2022-07-28T23:08:53.587Z,99.90
2022-07-28T23:11:20.539Z,99.90
2022-07-28T23:13:47.323Z,99.90
2022-07-28T23:16:16.846Z,99.90
2022-07-28T23:18:44.436Z,99.90
2022-07-28T23:21:12.213Z,99.90
2022-07-28T23:23:39.311Z,99.90
2022-07-28T23:26:06.215Z,99.90
2022-07-28T23:28:33.101Z,99.90
2022-07-28T23:31:00.388Z,99.90
2022-07-28T23:33:54.204Z,99.90
2022-07-28T23:36:26.898Z,99.90
2022-07-28T23:38:58.800Z,99.90
2022-07-28T23:41:26.673Z,99.90
2022-07-28T23:43:54.144Z,99.90
2022-07-28T23:46:22.494Z,99.90
2022-07-28T23:48:49.892Z,99.90
2022-07-28T23:51:16.796Z,99.90
2022-07-28T23:53:44.129Z,99.90
2022-07-28T23:56:11.143Z,99.90
2022-07-28T23:58:38.184Z,99.90
